KTUS/TUS METAR and TAF weather

Enter ICAO airport designator
Station Type Date Time Source
KTUS METAR 2020/12/05 05:53 UTC NOAA

KTUS 050553Z 20004KT 10SM CLR 08/M15 A3023 RMK AO2 SLP223 T00781150 10178 20072 53017


Station Type Date Time Source
KTUS Decoded METAR 2020/12/05 05:53 UTC NOAA

TUCSON INTERNATIONAL AIRPORT , AZ, United States (KTUS) 32-08N 110-57W 786M
Dec 05, 2020 - 12:53 AM EST / 2020.12.05 0553 UTC
Wind: from the SSW (200 degrees) at 5 MPH (4 KT):0
Visibility: 10 mile(s):0
Sky conditions: clear
Temperature: 46.0 F (7.8 C)
Dew Point: 5.0 F (-15.0 C)
Relative Humidity: 18%
Pressure (altimeter): 30.23 in. Hg (1023 hPa)
Pressure tendency: 0.05 inches (1.7 hPa) higher than three hours ago
ob: KTUS 050553Z 20004KT 10SM CLR 08/M15 A3023 RMK AO2 SLP223 T00781150 10178 20072 53017
cycle: 6

Station Type Date Time Source
KTUS TAF 2020/12/05 06:22 UTC NOAA

TAF KTUS 050520Z 0506/0606 13004KT P6SM SKC
FM052000 02005KT P6SM SKC

Example: see airport list